createdAt,value
2024-03-06T00:00:37.627Z,0.53
2024-03-06T00:01:37.763Z,0.54
2024-03-06T00:02:37.795Z,0.52
2024-03-06T00:03:37.837Z,0.52
2024-03-06T00:04:37.974Z,0.51
2024-03-06T00:05:37.942Z,0.51
2024-03-06T00:06:38.006Z,0.51
2024-03-06T00:07:38.055Z,0.50
2024-03-06T00:08:38.091Z,0.52
2024-03-06T00:09:38.181Z,0.53
2024-03-06T00:10:38.391Z,0.51
2024-03-06T00:11:38.399Z,0.53
2024-03-06T00:12:38.437Z,0.54
2024-03-06T00:13:38.457Z,0.55
2024-03-06T00:14:38.524Z,0.53
2024-03-06T00:15:38.533Z,0.56
2024-03-06T00:16:38.612Z,0.55
2024-03-06T00:17:38.702Z,0.54
2024-03-06T00:18:38.723Z,0.54
2024-03-06T00:19:38.824Z,0.55
2024-03-06T00:20:38.852Z,0.54
2024-03-06T00:21:38.927Z,0.55
2024-03-06T00:22:38.990Z,0.53
2024-03-06T00:23:39.061Z,0.54
2024-03-06T00:24:39.125Z,0.54
2024-03-06T00:25:39.307Z,0.52
2024-03-06T00:26:39.255Z,0.51
2024-03-06T00:27:39.311Z,0.52
2024-03-06T00:28:39.417Z,0.53
2024-03-06T00:29:39.455Z,0.52
2024-03-06T00:30:39.495Z,0.52
2024-03-06T00:31:39.615Z,0.53
2024-03-06T00:32:39.660Z,0.52
2024-03-06T00:33:39.818Z,0.50
2024-03-06T00:34:39.816Z,0.52
2024-03-06T00:35:39.867Z,0.52
2024-03-06T00:36:39.950Z,0.51
2024-03-06T00:37:40.034Z,0.51
2024-03-06T00:38:40.089Z,0.50
2024-03-06T00:39:40.154Z,0.51
2024-03-06T00:40:40.270Z,0.51
2024-03-06T00:41:40.294Z,0.51
2024-03-06T00:42:40.317Z,0.51
2024-03-06T00:43:40.457Z,0.53
2024-03-06T00:44:40.490Z,0.53
2024-03-06T00:45:40.607Z,0.52
2024-03-06T00:46:40.662Z,0.54
2024-03-06T00:47:40.737Z,0.52
2024-03-06T00:48:42.177Z,0.55
2024-03-06T00:49:40.875Z,0.54
2024-03-06T00:50:40.955Z,0.55
2024-03-06T00:51:45.183Z,0.55
2024-03-06T00:52:42.021Z,0.55
2024-03-06T00:53:41.014Z,0.55
2024-03-06T00:54:40.967Z,0.53
2024-03-06T00:55:41.064Z,0.51
2024-03-06T00:56:40.976Z,0.51
2024-03-06T00:57:40.999Z,0.50
2024-03-06T00:58:41.033Z,0.52
2024-03-06T00:59:41.004Z,0.50
2024-03-06T01:00:41.076Z,0.51
2024-03-06T01:01:41.066Z,0.52
2024-03-06T01:02:41.110Z,0.53
2024-03-06T01:03:41.147Z,0.53
2024-03-06T01:04:41.231Z,0.53
2024-03-06T01:05:41.264Z,0.52
2024-03-06T01:06:41.298Z,0.52
2024-03-06T01:07:41.422Z,0.53
2024-03-06T01:08:41.359Z,0.54
2024-03-06T01:09:41.436Z,0.51
2024-03-06T01:10:41.533Z,0.54
2024-03-06T01:11:41.511Z,0.54
2024-03-06T01:12:41.598Z,0.51
2024-03-06T01:13:41.647Z,0.54
2024-03-06T01:14:41.632Z,0.54
2024-03-06T01:15:41.679Z,0.54
2024-03-06T01:16:41.722Z,0.53
2024-03-06T01:17:41.753Z,0.51
2024-03-06T01:18:41.745Z,0.52
2024-03-06T01:19:41.805Z,0.52
2024-03-06T01:20:41.805Z,0.54
2024-03-06T01:21:41.860Z,0.54
2024-03-06T01:22:41.884Z,0.55
2024-03-06T01:23:41.922Z,0.53
2024-03-06T01:24:41.880Z,0.53
2024-03-06T01:25:41.903Z,0.52
2024-03-06T01:26:41.920Z,0.54
2024-03-06T01:27:41.995Z,0.54
2024-03-06T01:28:41.929Z,0.56
2024-03-06T01:29:41.995Z,0.54
2024-03-06T01:30:41.975Z,0.55
2024-03-06T01:31:42.018Z,0.53
2024-03-06T01:32:42.078Z,0.55
2024-03-06T01:33:41.969Z,0.54
2024-03-06T01:34:41.997Z,0.53
2024-03-06T01:35:41.991Z,0.52
2024-03-06T01:36:41.981Z,0.50
2024-03-06T01:37:42.017Z,0.51
2024-03-06T01:38:41.994Z,0.51
2024-03-06T01:39:41.994Z,0.50
2024-03-06T01:40:42.116Z,0.51
2024-03-06T01:41:42.002Z,0.50
2024-03-06T01:42:41.989Z,0.54
2024-03-06T01:43:42.043Z,0.53
2024-03-06T01:44:42.020Z,0.52
2024-03-06T01:45:42.072Z,0.51
2024-03-06T01:46:42.132Z,0.50
2024-03-06T01:47:42.086Z,0.51
2024-03-06T01:48:42.106Z,0.51
2024-03-06T01:49:45.302Z,0.50
2024-03-06T01:50:42.119Z,0.51
2024-03-06T01:51:42.089Z,0.51
2024-03-06T01:52:42.127Z,0.52
2024-03-06T01:53:42.094Z,0.52
2024-03-06T01:54:42.117Z,0.51
2024-03-06T01:55:42.228Z,0.50
2024-03-06T01:56:42.124Z,0.51
2024-03-06T01:57:42.101Z,0.51
2024-03-06T01:58:42.170Z,0.52
2024-03-06T01:59:42.142Z,0.52
2024-03-06T02:00:42.116Z,0.51
2024-03-06T02:01:42.151Z,0.51
2024-03-06T02:02:42.119Z,0.52
2024-03-06T02:03:42.106Z,0.51
2024-03-06T02:04:42.126Z,0.51
2024-03-06T02:05:42.114Z,0.53
2024-03-06T02:06:42.121Z,0.51
2024-03-06T02:07:42.163Z,0.52
2024-03-06T02:08:42.132Z,0.52
2024-03-06T02:09:42.099Z,0.52
2024-03-06T02:10:42.151Z,0.52
2024-03-06T02:11:42.082Z,0.51
2024-03-06T02:12:42.121Z,0.53
2024-03-06T02:13:42.199Z,0.52
2024-03-06T02:14:42.102Z,0.53
2024-03-06T02:15:42.140Z,0.51
2024-03-06T02:16:42.227Z,0.52
2024-03-06T02:17:42.104Z,0.53
2024-03-06T02:18:42.113Z,0.53
2024-03-06T02:19:42.190Z,0.53
2024-03-06T02:20:42.150Z,0.52
2024-03-06T02:21:42.108Z,0.51
2024-03-06T02:22:42.145Z,0.52
2024-03-06T02:23:42.162Z,0.52
2024-03-06T02:24:42.140Z,0.52
2024-03-06T02:25:42.153Z,0.52
2024-03-06T02:26:42.118Z,0.52
2024-03-06T02:27:42.121Z,0.51
2024-03-06T02:28:42.121Z,0.53
2024-03-06T02:29:42.162Z,0.52
2024-03-06T02:30:42.132Z,0.51
2024-03-06T02:31:42.181Z,0.52
2024-03-06T02:32:42.198Z,0.52
2024-03-06T02:33:42.118Z,0.51
2024-03-06T02:34:42.182Z,0.51
2024-03-06T02:35:42.171Z,0.50
2024-03-06T02:36:42.139Z,0.52
2024-03-06T02:37:42.173Z,0.51
2024-03-06T02:38:42.129Z,0.51
2024-03-06T02:39:42.159Z,0.51
2024-03-06T02:40:42.233Z,0.51
2024-03-06T02:41:42.172Z,0.51
2024-03-06T02:42:42.192Z,0.51
2024-03-06T02:43:42.172Z,0.51
2024-03-06T02:44:42.129Z,0.51
2024-03-06T02:45:42.141Z,0.50
2024-03-06T02:46:42.176Z,0.51
2024-03-06T02:47:42.231Z,0.50
2024-03-06T02:48:42.155Z,0.52
2024-03-06T02:49:42.206Z,0.51
2024-03-06T02:50:42.146Z,0.52
2024-03-06T02:51:42.136Z,0.50
2024-03-06T02:52:42.233Z,0.50
2024-03-06T02:53:42.230Z,0.53
2024-03-06T02:54:42.148Z,0.51
2024-03-06T02:55:42.288Z,0.51
2024-03-06T02:56:42.166Z,0.52
2024-03-06T02:57:42.218Z,0.52
2024-03-06T02:58:42.319Z,0.53
2024-03-06T02:59:42.342Z,0.52
2024-03-06T03:00:42.486Z,0.53
2024-03-06T03:01:42.505Z,0.53
2024-03-06T03:02:42.507Z,0.53
2024-03-06T03:03:42.569Z,0.52
2024-03-06T03:04:42.607Z,0.52
2024-03-06T03:05:42.687Z,0.53
2024-03-06T03:06:42.686Z,0.52
2024-03-06T03:07:42.745Z,0.52
2024-03-06T03:08:42.812Z,0.52
2024-03-06T03:09:42.859Z,0.52
2024-03-06T03:10:42.957Z,0.53
2024-03-06T03:11:42.979Z,0.54
2024-03-06T03:12:43.051Z,0.55
2024-03-06T03:13:43.105Z,0.57
2024-03-06T03:14:43.171Z,0.56
2024-03-06T03:15:43.197Z,0.56
2024-03-06T03:16:43.383Z,0.56
2024-03-06T03:17:43.360Z,0.55
2024-03-06T03:18:43.392Z,0.56
2024-03-06T03:19:43.494Z,0.55
2024-03-06T03:20:43.507Z,0.55
2024-03-06T03:21:43.558Z,0.53
2024-03-06T03:22:43.641Z,0.55
2024-03-06T03:23:43.630Z,0.53
2024-03-06T03:24:43.679Z,0.53
2024-03-06T03:25:43.769Z,0.55
2024-03-06T03:26:43.794Z,0.54
2024-03-06T03:27:43.864Z,0.54
2024-03-06T03:28:43.929Z,0.54
2024-03-06T03:29:43.970Z,0.50
2024-03-06T03:30:44.034Z,0.54
2024-03-06T03:31:44.076Z,0.54
2024-03-06T03:32:44.140Z,0.51
2024-03-06T03:33:44.154Z,0.54
2024-03-06T03:34:44.238Z,0.52
2024-03-06T03:35:44.317Z,0.52
2024-03-06T03:36:44.331Z,0.51
2024-03-06T03:37:44.434Z,0.52
2024-03-06T03:38:44.444Z,0.51
2024-03-06T03:39:44.497Z,0.52
2024-03-06T03:40:44.559Z,0.50
2024-03-06T03:41:44.668Z,0.52
2024-03-06T03:42:44.649Z,0.51
2024-03-06T03:43:44.713Z,0.53
2024-03-06T03:44:44.728Z,0.51
2024-03-06T03:45:44.793Z,0.52
2024-03-06T03:46:44.954Z,0.51
2024-03-06T03:47:44.958Z,0.53
2024-03-06T03:48:44.957Z,0.53
2024-03-06T03:49:48.624Z,0.52
2024-03-06T03:50:46.112Z,0.52
2024-03-06T03:51:45.016Z,0.51
2024-03-06T03:52:45.112Z,0.52
2024-03-06T03:53:45.027Z,0.51
2024-03-06T03:54:45.029Z,0.51
2024-03-06T03:55:45.036Z,0.51
2024-03-06T03:56:45.039Z,0.51
2024-03-06T03:57:45.027Z,0.51
2024-03-06T03:58:45.067Z,0.51
2024-03-06T03:59:45.030Z,0.50
2024-03-06T04:00:45.113Z,0.52
2024-03-06T04:01:45.169Z,0.52
2024-03-06T04:02:45.210Z,0.53
2024-03-06T04:03:45.289Z,0.53
2024-03-06T04:04:45.391Z,0.53
2024-03-06T04:05:45.384Z,0.52
2024-03-06T04:06:45.431Z,0.54
2024-03-06T04:07:45.495Z,0.53
2024-03-06T04:08:45.552Z,0.53
2024-03-06T04:09:45.589Z,0.55
2024-03-06T04:10:45.670Z,0.54
2024-03-06T04:11:45.740Z,0.55
2024-03-06T04:12:45.812Z,0.54
2024-03-06T04:13:45.927Z,0.54
2024-03-06T04:14:45.923Z,0.55
2024-03-06T04:15:45.990Z,0.56
2024-03-06T04:16:46.042Z,0.54
2024-03-06T04:17:46.091Z,0.54
2024-03-06T04:18:46.175Z,0.55
2024-03-06T04:19:46.259Z,0.54
2024-03-06T04:20:46.293Z,0.54
2024-03-06T04:21:46.374Z,0.54
2024-03-06T04:22:46.446Z,0.53
2024-03-06T04:23:46.460Z,0.53
2024-03-06T04:24:46.518Z,0.53
2024-03-06T04:25:46.668Z,0.52
2024-03-06T04:26:46.681Z,0.55
2024-03-06T04:27:46.732Z,0.54
2024-03-06T04:28:46.823Z,0.53
2024-03-06T04:29:46.888Z,0.55
2024-03-06T04:30:46.972Z,0.54
2024-03-06T04:31:47.029Z,0.54
2024-03-06T04:32:47.069Z,0.53
2024-03-06T04:33:47.181Z,0.53
2024-03-06T04:34:47.218Z,0.53
2024-03-06T04:35:47.302Z,0.54
2024-03-06T04:36:47.331Z,0.53
2024-03-06T04:37:47.410Z,0.52
2024-03-06T04:38:47.466Z,0.56
2024-03-06T04:39:47.519Z,0.53
2024-03-06T04:40:47.676Z,0.55
2024-03-06T04:41:47.705Z,0.53
2024-03-06T04:42:47.741Z,0.54
2024-03-06T04:43:47.888Z,0.52
2024-03-06T04:44:47.911Z,0.53
2024-03-06T04:45:47.995Z,0.54
2024-03-06T04:46:48.090Z,0.52
2024-03-06T04:47:48.137Z,0.53
2024-03-06T04:48:48.197Z,0.52
2024-03-06T04:49:48.329Z,0.52
2024-03-06T04:50:48.358Z,0.53
2024-03-06T04:51:48.383Z,0.53
2024-03-06T04:52:48.507Z,0.54
2024-03-06T04:53:48.537Z,0.54
2024-03-06T04:54:48.624Z,0.54
2024-03-06T04:55:56.110Z,0.50
2024-03-06T04:56:55.981Z,0.50
2024-03-06T04:57:55.986Z,0.50
2024-03-06T04:58:56.002Z,0.50
2024-03-06T04:59:56.012Z,0.50
2024-03-06T05:00:56.125Z,0.51
2024-03-06T05:01:56.122Z,0.51
2024-03-06T05:58:13.504Z,0.52
2024-03-06T05:58:56.384Z,0.54
2024-03-06T05:59:56.362Z,0.65
2024-03-06T06:00:56.422Z,0.85
2024-03-06T06:01:56.370Z,1.14
2024-03-06T06:02:56.381Z,1.59
2024-03-06T06:03:56.365Z,1.61
2024-03-06T06:05:04.980Z,1.46
2024-03-06T06:05:57.376Z,1.38
2024-03-06T06:06:56.409Z,1.30
2024-03-06T06:07:56.405Z,1.22
2024-03-06T06:08:56.363Z,1.14
2024-03-06T06:09:56.360Z,1.08
2024-03-06T06:10:56.474Z,1.09
2024-03-06T06:11:56.469Z,1.07
2024-03-06T06:12:56.370Z,1.05
2024-03-06T06:13:56.443Z,1.10
2024-03-06T06:14:56.381Z,1.05
2024-03-06T06:15:56.347Z,1.06
2024-03-06T06:16:56.450Z,1.04
2024-03-06T06:17:56.501Z,1.04
2024-03-06T06:18:56.429Z,1.06
2024-03-06T06:19:56.553Z,1.06
2024-03-06T06:20:56.605Z,1.06
2024-03-06T06:21:56.651Z,1.08
2024-03-06T06:22:56.757Z,1.05
2024-03-06T06:23:56.764Z,1.11
2024-03-06T06:24:56.798Z,1.09
2024-03-06T06:25:56.929Z,1.11
2024-03-06T06:26:56.908Z,1.13
2024-03-06T06:27:56.985Z,1.13
2024-03-06T06:28:57.051Z,1.10
2024-03-06T06:29:57.115Z,1.13
2024-03-06T06:30:57.179Z,1.13
2024-03-06T06:31:57.240Z,1.11
2024-03-06T06:32:57.261Z,1.16
2024-03-06T06:33:57.306Z,1.14
2024-03-06T06:34:57.373Z,1.19
2024-03-06T06:35:57.462Z,1.18
2024-03-06T06:36:57.461Z,1.23
2024-03-06T06:37:57.544Z,1.26
2024-03-06T06:38:57.547Z,1.24
2024-03-06T06:39:57.608Z,1.28
2024-03-06T06:40:57.708Z,1.36
2024-03-06T06:41:57.800Z,1.43
2024-03-06T06:42:57.799Z,1.51
2024-03-06T06:43:57.864Z,1.61
2024-03-06T06:44:57.882Z,1.64
2024-03-06T06:45:59.216Z,1.80
2024-03-06T06:46:58.038Z,1.85
2024-03-06T06:47:58.106Z,1.91
2024-03-06T06:48:58.049Z,2.02
2024-03-06T06:49:58.162Z,2.08
2024-03-06T06:50:58.127Z,2.19
2024-03-06T06:51:58.154Z,2.19
2024-03-06T06:52:58.221Z,2.29
2024-03-06T06:54:00.785Z,2.39
2024-03-06T06:54:58.186Z,2.54
2024-03-06T06:55:58.276Z,2.71
2024-03-06T06:56:58.186Z,2.88
2024-03-06T06:57:58.165Z,3.11
2024-03-06T06:58:58.268Z,3.24
2024-03-06T06:59:58.197Z,3.48
2024-03-06T07:00:58.209Z,3.77
2024-03-06T07:01:58.459Z,3.97
2024-03-06T07:02:58.211Z,4.07
2024-03-06T07:03:58.224Z,4.11
2024-03-06T07:04:58.266Z,4.35
2024-03-06T07:05:58.203Z,4.47
2024-03-06T07:06:58.201Z,4.44
2024-03-06T07:07:58.268Z,4.68
2024-03-06T07:08:58.252Z,4.69
2024-03-06T07:09:58.205Z,4.94
2024-03-06T07:10:58.273Z,5.27
2024-03-06T07:11:58.271Z,5.58
2024-03-06T07:12:58.214Z,5.78
2024-03-06T07:13:58.264Z,6.11
2024-03-06T07:14:58.210Z,6.29
2024-03-06T07:15:58.231Z,6.54
2024-03-06T07:16:58.258Z,6.80
2024-03-06T07:17:58.366Z,7.03
2024-03-06T07:18:58.209Z,7.24
2024-03-06T07:19:58.249Z,7.36
2024-03-06T07:20:58.227Z,7.35
2024-03-06T07:21:58.251Z,7.77
2024-03-06T07:22:58.260Z,8.02
2024-03-06T07:23:58.196Z,8.27
2024-03-06T07:24:58.209Z,8.50
2024-03-06T07:25:58.292Z,9.08
2024-03-06T07:26:58.225Z,9.85
2024-03-06T07:27:58.246Z,9.94
2024-03-06T07:28:58.275Z,9.73
2024-03-06T07:29:58.245Z,9.86
2024-03-06T07:30:58.242Z,10.09
2024-03-06T07:31:58.294Z,10.20
2024-03-06T07:32:58.278Z,10.26
2024-03-06T07:33:58.280Z,10.11
2024-03-06T07:34:58.274Z,10.10
2024-03-06T07:35:58.271Z,10.64
2024-03-06T07:36:58.851Z,10.75
2024-03-06T07:37:58.287Z,10.99
2024-03-06T07:38:58.253Z,11.08
2024-03-06T07:39:58.278Z,11.23
2024-03-06T07:40:58.338Z,11.57
2024-03-06T07:41:58.283Z,11.44
2024-03-06T07:42:58.271Z,11.89
2024-03-06T07:43:58.274Z,11.57
2024-03-06T07:44:58.256Z,11.73
2024-03-06T07:45:58.256Z,11.93
2024-03-06T07:46:58.317Z,12.13
2024-03-06T07:47:58.370Z,12.27
2024-03-06T07:48:58.240Z,12.14
2024-03-06T07:49:58.319Z,12.33
2024-03-06T07:50:58.260Z,12.46
2024-03-06T07:51:58.324Z,12.67
2024-03-06T07:52:58.383Z,13.13
2024-03-06T07:53:58.260Z,12.96
2024-03-06T07:54:58.269Z,13.26
2024-03-06T07:55:58.323Z,13.26
2024-03-06T07:56:58.354Z,13.18
2024-03-06T07:57:58.355Z,13.10
2024-03-06T07:58:58.473Z,12.83
2024-03-06T07:59:58.437Z,12.53
2024-03-06T08:00:58.492Z,12.11
2024-03-06T08:01:58.601Z,11.47
2024-03-06T08:02:58.639Z,10.86
2024-03-06T08:03:58.666Z,10.94
2024-03-06T08:04:58.714Z,10.43
2024-03-06T08:05:58.754Z,10.52
2024-03-06T08:06:58.831Z,10.88
2024-03-06T08:07:58.909Z,10.87
2024-03-06T08:09:01.107Z,11.00
2024-03-06T08:09:58.906Z,11.01
2024-03-06T08:10:58.964Z,10.80
2024-03-06T08:11:59.070Z,10.96
2024-03-06T08:12:58.903Z,10.56
2024-03-06T08:13:58.964Z,10.61
2024-03-06T08:14:58.917Z,10.63
2024-03-06T08:15:58.885Z,10.54
2024-03-06T08:16:58.929Z,9.81
2024-03-06T08:17:58.953Z,9.82
2024-03-06T08:18:58.905Z,9.51
2024-03-06T08:19:58.962Z,9.20
2024-03-06T08:20:58.912Z,9.14
2024-03-06T08:21:58.983Z,8.93
2024-03-06T08:22:59.003Z,8.91
2024-03-06T08:23:58.901Z,9.03
2024-03-06T08:24:58.899Z,9.02
2024-03-06T08:25:58.905Z,8.93
2024-03-06T08:26:58.910Z,9.20
2024-03-06T08:27:58.901Z,9.03
2024-03-06T08:28:58.962Z,9.02
2024-03-06T08:29:58.937Z,8.83
2024-03-06T08:30:58.920Z,8.55
2024-03-06T08:31:58.937Z,8.60
2024-03-06T08:32:59.083Z,8.42
2024-03-06T08:33:58.993Z,8.01
2024-03-06T08:34:58.948Z,7.93
2024-03-06T08:35:59.006Z,7.68
2024-03-06T08:36:58.960Z,7.66
2024-03-06T08:37:59.008Z,7.66
2024-03-06T08:38:58.942Z,7.44
2024-03-06T08:39:58.932Z,7.39
2024-03-06T08:40:59.024Z,7.45
2024-03-06T08:41:58.996Z,7.67
2024-03-06T08:42:59.033Z,7.77
2024-03-06T08:43:59.095Z,7.75
2024-03-06T08:44:59.131Z,7.65
2024-03-06T08:45:59.185Z,7.64
2024-03-06T08:46:59.769Z,7.43
2024-03-06T08:47:59.310Z,7.50
2024-03-06T08:49:03.203Z,7.08
2024-03-06T08:50:00.355Z,7.09
2024-03-06T08:50:59.326Z,7.01
2024-03-06T08:51:59.311Z,7.04
2024-03-06T08:52:59.419Z,6.78
2024-03-06T08:53:59.330Z,7.03
2024-03-06T08:54:59.325Z,6.95
2024-03-06T08:55:59.349Z,6.88
2024-03-06T08:56:59.351Z,7.08
2024-03-06T08:57:59.354Z,6.97
2024-03-06T08:58:59.358Z,6.93
2024-03-06T08:59:59.382Z,6.97
2024-03-06T09:00:59.423Z,6.77
2024-03-06T09:01:59.500Z,6.47
2024-03-06T09:02:59.503Z,6.63
2024-03-06T09:03:59.580Z,6.37
2024-03-06T09:04:59.724Z,6.42
2024-03-06T09:05:59.681Z,6.41
2024-03-06T09:06:59.711Z,6.21
2024-03-06T09:08:02.399Z,6.20
2024-03-06T09:08:59.775Z,6.54
2024-03-06T09:09:59.773Z,6.67
2024-03-06T09:10:59.814Z,6.59
2024-03-06T09:11:59.765Z,6.64
2024-03-06T09:12:59.759Z,6.53
2024-03-06T09:14:00.784Z,6.45
2024-03-06T09:14:59.763Z,6.54
2024-03-06T09:15:59.803Z,6.46
2024-03-06T09:16:59.841Z,6.14
2024-03-06T09:17:59.944Z,6.13
2024-03-06T09:18:59.741Z,6.14
2024-03-06T09:20:08.406Z,6.01
2024-03-06T09:21:00.872Z,6.02
2024-03-06T09:21:59.820Z,6.05
2024-03-06T09:22:59.850Z,6.10
2024-03-06T09:23:59.784Z,6.19
2024-03-06T09:24:59.795Z,6.39
2024-03-06T09:25:59.855Z,6.30
2024-03-06T09:26:59.802Z,6.20
2024-03-06T09:27:59.806Z,6.15
2024-03-06T09:28:59.845Z,6.12
2024-03-06T09:29:59.794Z,5.93
2024-03-06T09:30:59.805Z,5.83
2024-03-06T09:31:59.913Z,5.86
2024-03-06T09:33:00.102Z,5.71
2024-03-06T09:33:59.935Z,5.81
2024-03-06T09:35:00.356Z,5.78
2024-03-06T09:36:00.097Z,5.90
2024-03-06T09:37:00.128Z,5.95
2024-03-06T09:38:00.163Z,5.89
2024-03-06T09:39:00.167Z,5.82
2024-03-06T09:40:00.256Z,5.97
2024-03-06T09:41:00.290Z,5.95
2024-03-06T09:42:00.346Z,5.94
2024-03-06T09:43:00.383Z,5.93
2024-03-06T09:44:00.407Z,5.99
2024-03-06T09:45:00.438Z,5.93
2024-03-06T09:46:00.566Z,5.87
2024-03-06T09:47:00.557Z,6.29
2024-03-06T09:48:00.732Z,6.37
2024-03-06T09:49:00.569Z,6.16
2024-03-06T09:50:01.659Z,6.24
2024-03-06T09:51:00.635Z,6.47
2024-03-06T09:52:00.685Z,6.24
2024-03-06T09:53:00.736Z,6.05
2024-03-06T09:54:00.703Z,6.15
2024-03-06T09:55:00.753Z,6.33
2024-03-06T09:56:00.845Z,6.29
2024-03-06T09:57:00.728Z,6.19
2024-03-06T09:58:00.747Z,6.15
2024-03-06T09:59:00.817Z,6.03
2024-03-06T10:00:00.817Z,6.11
2024-03-06T10:01:00.818Z,6.22
2024-03-06T10:02:00.861Z,6.30
2024-03-06T10:03:00.795Z,6.57
2024-03-06T10:04:00.799Z,6.72
2024-03-06T10:05:00.965Z,6.66
2024-03-06T10:06:04.456Z,6.73
2024-03-06T10:07:01.902Z,6.74
2024-03-06T10:08:00.932Z,6.75
2024-03-06T10:09:00.903Z,6.77
2024-03-06T10:10:00.922Z,6.83
2024-03-06T10:11:00.976Z,7.00
2024-03-06T10:12:04.702Z,6.95
2024-03-06T10:13:01.932Z,6.96
2024-03-06T10:14:00.933Z,7.01
2024-03-06T10:15:00.934Z,7.11
2024-03-06T10:16:00.957Z,7.39
2024-03-06T10:17:01.008Z,7.58
2024-03-06T10:18:00.972Z,7.79
2024-03-06T10:19:00.957Z,7.70
2024-03-06T10:20:00.989Z,7.68
2024-03-06T10:21:01.756Z,7.90
2024-03-06T10:22:01.027Z,7.89
2024-03-06T10:23:01.075Z,7.86
2024-03-06T10:24:01.109Z,7.80
2024-03-06T10:25:01.242Z,7.78
2024-03-06T10:26:01.353Z,7.75
2024-03-06T10:27:01.331Z,7.80
2024-03-06T10:28:01.402Z,7.85
2024-03-06T10:29:01.464Z,7.84
2024-03-06T10:30:04.293Z,8.01
2024-03-06T10:31:01.535Z,8.31
2024-03-06T10:32:01.635Z,8.14
2024-03-06T10:33:01.696Z,8.15
2024-03-06T10:34:01.568Z,8.25
2024-03-06T10:35:01.639Z,8.23
2024-03-06T10:36:05.138Z,8.21
2024-03-06T10:37:01.548Z,8.22
2024-03-06T10:38:01.570Z,8.26
2024-03-06T10:39:01.604Z,8.29
2024-03-06T10:40:01.553Z,8.38
2024-03-06T10:41:01.602Z,8.40
2024-03-06T10:42:01.531Z,8.53
2024-03-06T10:43:01.595Z,8.86
2024-03-06T10:44:01.563Z,8.78
2024-03-06T10:45:01.610Z,8.75
2024-03-06T10:46:01.614Z,8.78
2024-03-06T10:47:01.705Z,9.02
2024-03-06T10:48:04.222Z,8.72
2024-03-06T10:49:01.565Z,9.09
2024-03-06T10:50:01.978Z,8.85
2024-03-06T10:51:01.567Z,9.21
2024-03-06T10:52:01.601Z,8.95
2024-03-06T10:53:01.615Z,8.67
2024-03-06T10:54:01.635Z,8.44
2024-03-06T10:55:01.598Z,8.31
2024-03-06T10:56:01.665Z,8.12
2024-03-06T10:57:01.591Z,8.03
2024-03-06T10:58:01.599Z,7.96
2024-03-06T10:59:01.664Z,8.28
2024-03-06T11:00:04.512Z,8.25
2024-03-06T11:01:01.635Z,8.26
2024-03-06T11:02:01.705Z,8.31
2024-03-06T11:03:01.598Z,8.44
2024-03-06T11:04:01.634Z,8.51
2024-03-06T11:05:01.705Z,8.78
2024-03-06T11:06:04.963Z,8.48
2024-03-06T11:07:01.613Z,8.49
2024-03-06T11:08:01.664Z,8.49
2024-03-06T11:09:01.621Z,8.36
2024-03-06T11:10:01.652Z,8.02
2024-03-06T11:11:01.664Z,8.06
2024-03-06T11:12:01.678Z,7.98
2024-03-06T11:13:01.609Z,8.13
2024-03-06T11:14:01.665Z,8.12
2024-03-06T11:15:01.609Z,8.23
2024-03-06T11:16:01.613Z,8.09
2024-03-06T11:17:01.670Z,8.10
2024-03-06T11:18:04.134Z,8.05
2024-03-06T11:19:01.857Z,8.06
2024-03-06T11:20:02.369Z,8.04
2024-03-06T11:21:01.859Z,8.01
2024-03-06T11:22:01.868Z,7.79
2024-03-06T11:23:01.910Z,7.80
2024-03-06T11:24:04.722Z,7.86
2024-03-06T11:25:01.925Z,8.05
2024-03-06T11:26:01.993Z,7.94
2024-03-06T11:27:02.011Z,8.12
2024-03-06T11:28:01.929Z,8.09
2024-03-06T11:29:01.940Z,7.97
2024-03-06T11:30:04.539Z,7.85
2024-03-06T11:31:01.956Z,7.86
2024-03-06T11:32:01.980Z,7.89
2024-03-06T11:33:02.329Z,7.77
2024-03-06T11:34:02.035Z,7.72
2024-03-06T11:35:01.897Z,7.25
2024-03-06T11:36:05.022Z,7.10
2024-03-06T11:37:01.918Z,7.11
2024-03-06T11:38:01.985Z,7.12
2024-03-06T11:39:01.989Z,7.11
2024-03-06T11:40:01.939Z,6.92
2024-03-06T11:41:01.991Z,6.55
2024-03-06T11:42:01.978Z,6.40
2024-03-06T11:43:01.925Z,6.34
2024-03-06T11:44:02.105Z,6.21
2024-03-06T11:45:01.901Z,6.08
2024-03-06T11:46:01.914Z,5.87
2024-03-06T11:47:02.016Z,5.76
2024-03-06T11:48:02.071Z,5.53
2024-03-06T11:49:01.927Z,5.54
2024-03-06T11:50:01.967Z,5.40
2024-03-06T11:51:04.744Z,5.39
2024-03-06T11:52:01.919Z,5.40
2024-03-06T11:53:01.997Z,5.40
2024-03-06T11:54:01.941Z,5.20
2024-03-06T11:55:01.940Z,5.14
2024-03-06T11:56:01.954Z,5.21
2024-03-06T11:57:01.945Z,4.98
2024-03-06T11:58:01.957Z,4.83
2024-03-06T11:59:01.994Z,4.75
2024-03-06T12:00:01.927Z,4.64
2024-03-06T12:01:01.979Z,4.51
2024-03-06T12:02:02.005Z,4.53
2024-03-06T12:03:01.980Z,4.45
2024-03-06T12:04:04.910Z,4.43
2024-03-06T12:05:01.931Z,4.43
2024-03-06T12:06:01.953Z,4.44
2024-03-06T12:07:01.969Z,4.44
2024-03-06T12:08:01.938Z,4.44
2024-03-06T12:09:01.929Z,4.36
2024-03-06T12:10:01.968Z,4.27
2024-03-06T12:11:02.036Z,4.01
2024-03-06T12:12:02.124Z,3.04
2024-03-06T12:13:01.961Z,2.66
2024-03-06T12:14:01.986Z,2.43
2024-03-06T12:15:02.057Z,2.29
2024-03-06T12:16:04.727Z,2.11
2024-03-06T12:17:02.031Z,2.11
2024-03-06T12:18:02.071Z,2.12
2024-03-06T12:19:02.014Z,2.14
2024-03-06T12:20:02.087Z,2.22
2024-03-06T12:21:01.934Z,2.40
2024-03-06T12:22:04.670Z,2.52
2024-03-06T12:23:02.011Z,2.53
2024-03-06T12:24:01.974Z,2.57
2024-03-06T12:25:02.023Z,2.65
2024-03-06T12:26:06.102Z,2.74
2024-03-06T12:27:01.967Z,2.54
2024-03-06T12:28:01.975Z,2.59
2024-03-06T12:29:01.995Z,2.69
2024-03-06T12:30:02.096Z,2.82
2024-03-06T12:31:01.962Z,3.03
2024-03-06T12:32:02.109Z,2.92
2024-03-06T12:33:02.059Z,2.82
2024-03-06T12:34:04.760Z,2.88
2024-03-06T12:35:02.488Z,2.81
2024-03-06T12:36:01.995Z,2.87
2024-03-06T12:37:02.032Z,2.83
2024-03-06T12:38:02.857Z,2.88
2024-03-06T12:39:02.002Z,2.92
2024-03-06T12:40:02.091Z,2.97
2024-03-06T12:41:02.019Z,2.92
2024-03-06T12:42:02.006Z,2.95
2024-03-06T12:43:01.984Z,2.94
2024-03-06T12:44:02.107Z,3.19
2024-03-06T12:45:02.010Z,3.22
2024-03-06T12:46:04.270Z,3.08
2024-03-06T12:47:02.063Z,3.08
2024-03-06T12:48:02.095Z,2.87
2024-03-06T12:49:01.993Z,2.43
2024-03-06T12:50:02.094Z,2.17
2024-03-06T12:51:02.010Z,1.88
2024-03-06T12:52:05.695Z,1.66
2024-03-06T12:53:02.107Z,1.60
2024-03-06T12:54:02.130Z,1.42
2024-03-06T12:55:02.037Z,1.30
2024-03-06T12:56:02.148Z,1.18
2024-03-06T12:57:02.039Z,1.09
2024-03-06T12:58:02.010Z,1.01
2024-03-06T12:59:02.106Z,0.95
2024-03-06T13:00:02.035Z,0.89
2024-03-06T13:01:02.070Z,0.86
2024-03-06T13:02:02.138Z,0.83
2024-03-06T13:03:02.026Z,0.80
2024-03-06T13:04:06.470Z,0.78
2024-03-06T13:05:03.036Z,0.78
2024-03-06T13:06:02.192Z,0.77
2024-03-06T13:07:02.030Z,0.74
2024-03-06T13:08:02.058Z,0.69
2024-03-06T13:09:02.017Z,0.65
2024-03-06T13:10:04.817Z,0.61
2024-03-06T13:11:02.133Z,0.61
2024-03-06T13:12:02.219Z,0.59
2024-03-06T13:13:02.055Z,0.58
2024-03-06T13:14:02.184Z,0.56
2024-03-06T13:15:02.065Z,0.55
2024-03-06T13:16:04.867Z,0.53
2024-03-06T13:17:02.121Z,0.53
2024-03-06T13:18:02.125Z,0.54
2024-03-06T13:19:02.074Z,0.55
2024-03-06T13:20:02.162Z,0.54
2024-03-06T13:21:02.104Z,0.55
2024-03-06T13:22:04.467Z,0.53
2024-03-06T13:23:02.109Z,0.53
2024-03-06T13:24:02.088Z,0.53
2024-03-06T13:25:02.051Z,0.53
2024-03-06T13:26:02.337Z,0.52
2024-03-06T13:27:02.061Z,0.52
2024-03-06T13:28:02.049Z,0.52
2024-03-06T13:29:02.104Z,0.53
2024-03-06T13:30:04.743Z,0.50
2024-03-06T13:31:02.071Z,0.50
2024-03-06T13:32:02.188Z,0.50
2024-03-06T13:33:02.248Z,0.50
2024-03-06T13:34:02.107Z,0.48
2024-03-06T13:35:02.159Z,0.48
2024-03-06T13:36:05.223Z,0.51
2024-03-06T13:37:02.053Z,0.51
2024-03-06T13:38:02.106Z,0.48
2024-03-06T13:39:02.128Z,0.47
2024-03-06T13:40:02.282Z,0.46
2024-03-06T13:41:02.128Z,0.47
2024-03-06T13:42:02.097Z,0.50
2024-03-06T13:43:02.089Z,0.52
2024-03-06T13:44:02.135Z,0.51
2024-03-06T13:45:02.075Z,0.50
2024-03-06T13:46:02.101Z,0.51
2024-03-06T13:47:02.114Z,0.51
2024-03-06T13:48:02.179Z,0.51
2024-03-06T13:49:02.092Z,0.50
2024-03-06T13:50:02.139Z,0.50
2024-03-06T13:51:02.070Z,0.50
2024-03-06T13:52:04.873Z,0.51
2024-03-06T13:53:03.842Z,0.51
2024-03-06T13:54:02.074Z,0.50
2024-03-06T13:55:02.108Z,0.50
2024-03-06T13:56:02.146Z,0.49
2024-03-06T13:57:02.088Z,0.48
2024-03-06T13:58:04.444Z,0.48
2024-03-06T13:59:02.117Z,0.50
2024-03-06T14:00:02.085Z,0.51
2024-03-06T14:01:02.114Z,0.52
2024-03-06T14:02:02.231Z,0.51
2024-03-06T14:03:02.142Z,0.51
2024-03-06T14:04:03.577Z,0.51
2024-03-06T14:05:02.176Z,0.51
2024-03-06T14:06:02.102Z,0.51
2024-03-06T14:07:02.114Z,0.51
2024-03-06T14:08:02.158Z,0.51
2024-03-06T14:09:02.116Z,0.51
2024-03-06T14:10:05.096Z,0.50
2024-03-06T14:11:02.271Z,0.50
2024-03-06T14:12:02.196Z,0.50